Time;durP1;ratioP1;P1;durP2;ratioP2;P2;SDS_P1;SDS_P2;PMS_P1;PMS_P2;Temp;Humidity;BMP_temperature;BMP_pressure;BME280_temperature;BME280_humidity;BME280_pressure;Samples;Min_cycle;Max_cycle;Signal;HPM_P1;HPM_P2
2023/01/03 00:02:08;;;;;;;6.93;2.10;;;5.50;99.90;;;;;;4926807;28;20234;-81
2023/01/03 00:04:34;;;;;;;6.83;2.13;;;5.50;99.90;;;;;;4924809;29;20264;-82
2023/01/03 00:07:01;;;;;;;9.80;2.43;;;5.60;99.90;;;;;;4945714;28;21137;-81
2023/01/03 00:09:28;;;;;;;5.80;2.40;;;5.60;99.90;;;;;;4943935;28;20278;-81
2023/01/03 00:14:43;;;;;;;9.27;1.90;;;5.70;99.90;;;;;;4926951;29;20916;-81
2023/01/03 00:17:11;;;;;;;7.17;2.20;;;5.70;99.90;;;;;;4914882;29;20220;-81
2023/01/03 00:19:40;;;;;;;8.77;2.10;;;5.70;99.90;;;;;;4944599;28;20763;-80
2023/01/03 00:22:07;;;;;;;4.53;1.93;;;5.80;99.90;;;;;;4944489;28;20223;-80
2023/01/03 00:24:34;;;;;;;5.67;2.00;;;5.80;99.90;;;;;;4943863;28;20258;-80
2023/01/03 00:27:01;;;;;;;9.67;2.40;;;5.80;99.90;;;;;;4938789;28;20971;-81
2023/01/03 00:29:28;;;;;;;6.77;2.03;;;5.80;99.90;;;;;;4941883;28;20234;-79
2023/01/03 00:32:00;;;;;;;7.67;2.17;;;5.80;99.90;;;;;;4945622;28;20250;-79
2023/01/03 00:34:27;;;;;;;7.93;2.03;;;5.80;99.90;;;;;;4928279;29;20246;-79
2023/01/03 00:36:53;;;;;;;6.10;1.83;;;5.80;99.90;;;;;;4928799;29;20299;-79
2023/01/03 00:39:20;;;;;;;6.60;2.00;;;5.80;99.90;;;;;;4945989;28;20231;-79
2023/01/03 00:41:50;;;;;;;6.57;1.70;;;5.80;99.90;;;;;;4945567;28;20235;-80
2023/01/03 00:44:20;;;;;;;6.50;1.87;;;5.70;99.90;;;;;;4944949;28;20234;-80
2023/01/03 00:46:46;;;;;;;6.10;1.80;;;5.70;99.90;;;;;;4919555;29;20343;-80
2023/01/03 00:49:15;;;;;;;6.67;1.93;;;5.70;99.90;;;;;;4945396;28;20223;-81
2023/01/03 00:51:43;;;;;;;8.30;2.30;;;5.60;99.90;;;;;;4937171;28;20285;-80
2023/01/03 00:54:14;;;;;;;8.70;1.97;;;5.60;99.90;;;;;;4944632;28;20235;-79
2023/01/03 00:56:42;;;;;;;10.93;1.80;;;5.60;99.90;;;;;;4944921;28;20294;-80
2023/01/03 00:59:13;;;;;;;7.53;2.17;;;5.50;99.90;;;;;;4944721;28;20233;-80
2023/01/03 01:01:42;;;;;;;5.00;1.83;;;5.50;99.90;;;;;;4944087;28;20241;-79
2023/01/03 01:04:15;;;;;;;6.53;1.63;;;5.50;99.90;;;;;;4944800;28;20218;-80
2023/01/03 01:06:46;;;;;;;7.47;2.07;;;5.50;99.90;;;;;;4928645;29;20467;-80
2023/01/03 01:09:15;;;;;;;5.30;1.73;;;5.50;99.90;;;;;;4928942;28;20999;-79
2023/01/03 01:11:42;;;;;;;5.10;1.80;;;5.50;99.90;;;;;;4927446;29;20230;-79
2023/01/03 01:14:19;;;;;;;5.20;1.33;;;5.50;99.90;;;;;;4927465;28;20289;-80
2023/01/03 01:16:47;;;;;;;9.83;1.80;;;5.50;99.90;;;;;;4944657;29;20229;-80
2023/01/03 01:19:15;;;;;;;5.33;1.83;;;5.40;99.90;;;;;;4927829;29;20237;-79
2023/01/03 01:21:44;;;;;;;9.37;1.83;;;5.40;99.90;;;;;;4908968;29;20650;-80
2023/01/03 01:24:14;;;;;;;12.17;1.83;;;5.40;99.90;;;;;;4922928;29;20221;-80
2023/01/03 01:26:41;;;;;;;6.97;1.70;;;5.40;99.90;;;;;;4928204;29;20310;-80
2023/01/03 01:29:09;;;;;;;6.53;1.90;;;5.30;99.90;;;;;;4927702;28;20230;-79
2023/01/03 01:31:38;;;;;;;7.63;2.23;;;5.30;99.90;;;;;;4927075;29;20219;-80
2023/01/03 01:34:07;;;;;;;7.03;1.80;;;5.30;99.90;;;;;;4919608;28;20243;-81
2023/01/03 01:36:38;;;;;;;5.00;1.77;;;5.20;99.90;;;;;;4946289;28;20316;-81
2023/01/03 01:39:07;;;;;;;6.83;2.20;;;5.20;99.90;;;;;;4929445;28;20427;-81
2023/01/03 01:44:58;;;;;;;6.20;2.03;;;5.10;99.90;;;;;;4909937;29;20943;-81
2023/01/03 01:47:32;;;;;;;6.27;1.50;;;5.00;99.90;;;;;;4934922;28;20244;-81
2023/01/03 01:50:05;;;;;;;5.67;1.73;;;4.90;99.90;;;;;;4925046;29;20244;-80
2023/01/03 01:52:39;;;;;;;6.80;1.80;;;4.90;99.90;;;;;;4925885;29;20233;-81
2023/01/03 01:55:12;;;;;;;8.23;2.10;;;4.80;99.90;;;;;;4927810;28;20324;-81
2023/01/03 01:57:40;;;;;;;5.80;2.00;;;4.70;99.90;;;;;;4922156;29;20230;-80
2023/01/03 02:00:09;;;;;;;5.80;2.00;;;4.70;99.90;;;;;;4917100;29;21080;-81
2023/01/03 02:02:45;;;;;;;6.60;2.57;;;4.60;99.90;;;;;;4927179;29;20286;-81
2023/01/03 02:05:12;;;;;;;7.33;2.00;;;4.60;99.90;;;;;;4941014;28;20230;-81
2023/01/03 02:07:40;;;;;;;6.07;1.90;;;4.60;99.90;;;;;;4919472;29;20318;-81
2023/01/03 02:10:10;;;;;;;6.43;1.53;;;4.50;99.90;;;;;;4929147;28;20265;-81
2023/01/03 02:15:38;;;;;;;8.53;2.20;;;4.40;99.90;;;;;;4943519;28;21271;-80
2023/01/03 02:18:30;;;;;;;5.13;2.00;;;4.40;99.90;;;;;;4931105;28;20229;-81
2023/01/03 02:21:37;;;;;;;6.03;2.17;;;4.40;99.90;;;;;;4930314;29;20235;-82
2023/01/03 02:24:33;;;;;;;7.57;2.73;;;4.30;99.90;;;;;;4933899;28;20223;-81
2023/01/03 02:27:07;;;;;;;8.27;2.03;;;4.30;99.90;;;;;;4949140;28;20238;-80
2023/01/03 02:30:15;;;;;;;5.53;2.53;;;4.30;99.90;;;;;;4948191;28;20232;-81
2023/01/03 02:32:50;;;;;;;6.07;2.23;;;4.20;99.90;;;;;;4904324;29;20514;-80
2023/01/03 02:35:22;;;;;;;7.80;2.30;;;4.20;99.90;;;;;;4927669;28;20976;-80
2023/01/03 02:37:58;;;;;;;8.47;2.50;;;4.20;99.90;;;;;;4930102;29;20812;-80
2023/01/03 02:40:34;;;;;;;5.90;2.57;;;4.10;99.90;;;;;;4948386;28;20263;-81
2023/01/03 02:43:06;;;;;;;9.13;2.70;;;4.10;99.90;;;;;;4947959;28;20239;-81
2023/01/03 02:46:04;;;;;;;7.63;2.63;;;4.10;99.90;;;;;;4928027;29;20243;-81
2023/01/03 02:48:40;;;;;;;5.10;2.60;;;4.00;99.90;;;;;;4942393;29;20225;-81
2023/01/03 02:51:15;;;;;;;6.77;2.40;;;4.00;99.90;;;;;;4927294;29;20263;-81
2023/01/03 02:53:45;;;;;;;8.43;2.70;;;4.00;99.90;;;;;;4948157;28;20282;-81
2023/01/03 02:56:17;;;;;;;8.00;2.70;;;3.90;99.90;;;;;;4931039;28;20893;-81
2023/01/03 02:58:48;;;;;;;7.40;2.70;;;3.90;99.90;;;;;;4928428;29;20241;-80
2023/01/03 03:01:18;;;;;;;7.83;2.63;;;3.90;99.90;;;;;;4929507;29;20437;-80
2023/01/03 03:03:47;;;;;;;6.40;2.53;;;3.90;99.90;;;;;;4929075;29;20225;-81
2023/01/03 03:06:20;;;;;;;6.07;2.30;;;3.90;99.90;;;;;;4948466;28;20229;-81
2023/01/03 03:08:50;;;;;;;8.13;2.40;;;3.90;99.90;;;;;;4927105;29;20229;-80
2023/01/03 03:14:08;;;;;;;8.83;2.70;;;3.90;99.90;;;;;;4931533;29;20247;-81
2023/01/03 03:16:48;;;;;;;5.27;2.40;;;3.80;99.90;;;;;;4905940;29;20236;-80
2023/01/03 03:25:09;;;;;;;5.40;2.03;;;3.70;99.90;;;;;;4941345;28;20217;-79
2023/01/03 03:30:26;;;;;;;5.40;2.30;;;3.70;99.90;;;;;;4943745;28;20258;-80
2023/01/03 03:32:58;;;;;;;8.37;2.37;;;3.70;99.90;;;;;;4940286;29;21625;-80
2023/01/03 03:35:31;;;;;;;8.83;2.60;;;3.60;99.90;;;;;;4948227;28;20717;-80
2023/01/03 03:38:01;;;;;;;8.53;2.60;;;3.60;99.90;;;;;;4941343;29;20866;-79
2023/01/03 03:46:23;;;;;;;7.23;3.40;;;3.50;99.90;;;;;;4901331;29;21083;-79
2023/01/03 03:51:47;;;;;;;8.03;2.73;;;3.50;99.90;;;;;;4938386;28;20244;-79
2023/01/03 03:54:19;;;;;;;7.50;2.63;;;3.50;99.90;;;;;;4927798;28;20224;-79
2023/01/03 03:56:48;;;;;;;8.00;2.70;;;3.50;99.90;;;;;;4931053;29;20304;-79
2023/01/03 03:59:17;;;;;;;5.07;2.73;;;3.40;99.90;;;;;;4931260;29;20312;-79
2023/01/03 04:01:47;;;;;;;7.37;2.70;;;3.40;99.90;;;;;;4948788;28;20259;-80
2023/01/03 04:04:27;;;;;;;10.47;2.90;;;3.40;99.90;;;;;;4925864;28;20320;-80
2023/01/03 04:06:55;;;;;;;10.17;2.80;;;3.40;99.90;;;;;;4931176;29;20232;-80
2023/01/03 04:09:21;;;;;;;7.50;2.73;;;3.40;99.90;;;;;;4947190;28;20229;-80
2023/01/03 04:11:48;;;;;;;4.63;2.50;;;3.30;99.90;;;;;;4947133;28;20216;-80
2023/01/03 04:14:15;;;;;;;6.60;2.53;;;3.30;99.90;;;;;;4948482;28;20220;-80
2023/01/03 04:16:42;;;;;;;8.53;2.83;;;3.30;99.90;;;;;;4945844;28;20270;-80
2023/01/03 04:19:11;;;;;;;7.77;2.97;;;3.30;99.90;;;;;;4933737;28;20229;-80
2023/01/03 04:21:40;;;;;;;8.30;2.83;;;3.30;99.90;;;;;;4932009;29;20228;-80
2023/01/03 04:24:08;;;;;;;6.53;2.73;;;3.30;99.90;;;;;;4948029;28;20227;-80
2023/01/03 04:26:38;;;;;;;7.63;2.80;;;3.20;99.90;;;;;;4925198;28;20288;-79
2023/01/03 04:29:05;;;;;;;9.47;3.50;;;3.20;99.90;;;;;;4948725;28;20259;-80
2023/01/03 04:31:32;;;;;;;10.73;3.43;;;3.20;99.90;;;;;;4948452;28;20319;-80
2023/01/03 04:33:59;;;;;;;8.07;3.53;;;3.20;99.90;;;;;;4928235;29;20975;-80
2023/01/03 04:36:29;;;;;;;8.57;2.90;;;3.10;99.90;;;;;;4931109;29;20314;-81
2023/01/03 04:38:55;;;;;;;8.03;3.40;;;3.10;99.90;;;;;;4922771;29;20251;-80
2023/01/03 04:41:26;;;;;;;9.03;3.77;;;3.10;99.90;;;;;;4934080;28;20222;-79
2023/01/03 04:44:01;;;;;;;10.17;3.50;;;3.10;99.90;;;;;;4926339;29;20235;-79
2023/01/03 04:46:29;;;;;;;7.83;3.50;;;3.00;99.90;;;;;;4947857;28;20223;-79
2023/01/03 04:48:56;;;;;;;6.13;4.00;;;3.10;99.90;;;;;;4935623;28;20225;-79
2023/01/03 04:51:25;;;;;;;9.30;3.53;;;3.00;99.90;;;;;;4930056;29;20275;-79
2023/01/03 04:53:52;;;;;;;10.23;3.53;;;3.00;99.90;;;;;;4931218;29;20228;-79
2023/01/03 04:56:25;;;;;;;7.97;3.77;;;3.00;99.90;;;;;;4928822;29;20283;-79
2023/01/03 04:58:53;;;;;;;9.47;4.13;;;3.00;99.90;;;;;;4946606;28;20323;-79
2023/01/03 05:01:21;;;;;;;8.20;3.90;;;3.00;99.90;;;;;;4923604;29;20220;-79
2023/01/03 05:03:49;;;;;;;11.33;3.93;;;3.00;99.90;;;;;;4936517;28;20716;-80
2023/01/03 05:06:16;;;;;;;7.23;3.77;;;3.00;99.90;;;;;;4929289;28;20328;-79
2023/01/03 05:08:47;;;;;;;7.70;3.80;;;2.90;99.90;;;;;;4929570;29;20327;-79
2023/01/03 05:11:16;;;;;;;10.10;4.40;;;2.90;99.90;;;;;;4926418;28;20293;-79
2023/01/03 05:13:44;;;;;;;9.00;3.53;;;2.90;99.90;;;;;;4928111;28;20306;-79
2023/01/03 05:16:13;;;;;;;7.43;3.90;;;2.90;99.90;;;;;;4927319;28;21190;-79
2023/01/03 05:18:41;;;;;;;11.70;3.60;;;2.90;99.90;;;;;;4930764;29;20593;-80
2023/01/03 05:26:40;;;;;;;8.20;3.97;;;2.90;99.90;;;;;;4923631;29;20231;-81
2023/01/03 05:29:09;;;;;;;8.73;4.33;;;2.90;99.90;;;;;;4923909;28;20231;-80
2023/01/03 05:31:36;;;;;;;8.90;3.50;;;2.90;99.90;;;;;;4918919;29;20241;-82
2023/01/03 05:34:03;;;;;;;7.23;3.77;;;2.90;99.90;;;;;;4924140;29;20221;-81
2023/01/03 05:36:30;;;;;;;9.50;4.20;;;3.00;99.90;;;;;;4925566;28;20242;-80
2023/01/03 05:38:57;;;;;;;7.23;3.23;;;3.00;99.90;;;;;;4936837;28;20235;-80
2023/01/03 05:44:09;;;;;;;10.97;4.20;;;3.10;99.90;;;;;;4933658;28;20232;-80
2023/01/03 05:46:36;;;;;;;8.53;3.90;;;3.10;99.90;;;;;;4941625;28;20231;-80
2023/01/03 05:49:03;;;;;;;9.93;3.97;;;3.10;99.90;;;;;;4941809;28;20221;-80
2023/01/03 05:51:29;;;;;;;8.47;3.80;;;3.10;99.90;;;;;;4943088;28;20319;-80
2023/01/03 05:53:56;;;;;;;7.30;3.47;;;3.10;99.90;;;;;;4937371;28;20222;-80
2023/01/03 05:56:23;;;;;;;9.33;3.23;;;3.10;99.90;;;;;;4936887;28;20246;-80
2023/01/03 05:58:50;;;;;;;8.13;3.57;;;3.10;99.90;;;;;;4941435;28;20239;-80
2023/01/03 06:01:18;;;;;;;10.97;3.90;;;3.00;99.90;;;;;;4939086;28;20247;-80
2023/01/03 06:03:46;;;;;;;5.93;3.80;;;3.10;99.90;;;;;;4936500;28;20289;-79
2023/01/03 06:06:14;;;;;;;7.70;3.83;;;3.00;99.90;;;;;;4926169;28;20701;-79
2023/01/03 06:08:41;;;;;;;9.17;4.10;;;3.00;99.90;;;;;;4924297;29;20263;-81
2023/01/03 06:11:10;;;;;;;5.30;3.47;;;2.90;99.90;;;;;;4922837;28;20230;-80
2023/01/03 06:13:37;;;;;;;9.23;3.77;;;2.80;99.90;;;;;;4941041;28;20223;-79
2023/01/03 06:18:50;;;;;;;9.03;4.40;;;2.80;99.90;;;;;;4925179;29;20215;-79
2023/01/03 06:21:16;;;;;;;11.67;4.43;;;2.70;99.90;;;;;;4918432;29;20232;-79
2023/01/03 06:23:46;;;;;;;12.80;4.47;;;2.60;99.90;;;;;;4932184;29;20263;-79
2023/01/03 06:26:13;;;;;;;8.43;4.73;;;2.60;99.90;;;;;;4943968;28;20311;-79
2023/01/03 06:28:39;;;;;;;8.30;4.50;;;2.60;99.90;;;;;;4943623;28;20838;-79
2023/01/03 06:31:06;;;;;;;9.60;4.23;;;2.50;99.90;;;;;;4940831;28;20231;-80
2023/01/03 06:33:36;;;;;;;7.40;4.07;;;2.50;99.90;;;;;;4935289;28;21298;-80
2023/01/03 06:36:06;;;;;;;6.97;4.17;;;2.50;99.90;;;;;;4930701;28;20228;-80
2023/01/03 06:38:33;;;;;;;11.40;4.70;;;2.40;99.90;;;;;;4936584;28;20316;-80
2023/01/03 06:41:03;;;;;;;9.97;4.33;;;2.40;99.90;;;;;;4942130;28;20283;-80
2023/01/03 06:43:30;;;;;;;9.00;4.30;;;2.40;99.90;;;;;;4925123;29;20231;-80
2023/01/03 06:54:20;;;;;;;11.10;5.37;;;2.30;99.90;;;;;;4941148;28;20795;-80
2023/01/03 06:56:46;;;;;;;9.03;5.30;;;2.20;99.90;;;;;;4929315;29;20319;-80
2023/01/03 06:59:13;;;;;;;9.13;4.90;;;2.20;99.90;;;;;;4948586;28;20222;-80
2023/01/03 07:01:40;;;;;;;14.93;5.53;;;2.20;99.90;;;;;;4931057;29;20233;-80
2023/01/03 07:04:07;;;;;;;12.77;5.07;;;2.10;99.90;;;;;;4930040;29;20233;-80
2023/01/03 07:06:35;;;;;;;10.87;5.50;;;2.10;99.90;;;;;;4942592;29;20228;-79
2023/01/03 07:09:01;;;;;;;9.80;5.47;;;2.10;99.90;;;;;;4921925;28;20230;-79
2023/01/03 07:11:29;;;;;;;10.30;5.40;;;2.10;99.90;;;;;;4948012;28;20313;-79
2023/01/03 07:13:57;;;;;;;10.40;5.60;;;2.10;99.90;;;;;;4947736;28;20271;-80
2023/01/03 07:16:26;;;;;;;9.67;5.43;;;2.20;99.90;;;;;;4939857;28;20263;-80
2023/01/03 07:18:53;;;;;;;11.63;5.43;;;2.10;99.90;;;;;;4947941;28;20306;-79
2023/01/03 07:21:21;;;;;;;10.43;5.60;;;2.10;99.90;;;;;;4931687;28;20223;-80
2023/01/03 07:23:49;;;;;;;11.10;5.57;;;2.10;99.90;;;;;;4949436;28;20230;-80
2023/01/03 07:26:16;;;;;;;10.33;5.57;;;2.20;99.90;;;;;;4925072;29;20217;-80
2023/01/03 07:28:43;;;;;;;8.50;5.77;;;2.20;99.90;;;;;;4928190;29;20236;-79
2023/01/03 07:31:10;;;;;;;9.27;5.33;;;2.30;99.90;;;;;;4923417;28;20290;-79
2023/01/03 07:33:38;;;;;;;11.60;5.60;;;2.30;99.90;;;;;;4928305;28;20479;-80
2023/01/03 07:36:07;;;;;;;10.60;5.10;;;2.30;99.90;;;;;;4925089;29;20897;-80
2023/01/03 07:38:34;;;;;;;10.80;4.80;;;2.30;99.90;;;;;;4928324;29;20219;-80
2023/01/03 07:41:04;;;;;;;8.23;4.77;;;2.40;99.90;;;;;;4943033;29;20311;-80
2023/01/03 07:43:36;;;;;;;6.87;4.60;;;2.40;99.90;;;;;;4943128;28;20240;-80
2023/01/03 07:46:08;;;;;;;8.07;4.63;;;2.40;99.90;;;;;;4925141;29;20315;-80
2023/01/03 07:48:38;;;;;;;11.33;5.10;;;2.50;99.90;;;;;;4948455;28;20237;-80
2023/01/03 07:51:05;;;;;;;12.50;5.50;;;2.50;99.90;;;;;;4930078;29;20287;-80
2023/01/03 07:53:33;;;;;;;9.83;4.80;;;2.50;99.90;;;;;;4930053;28;20357;-80
2023/01/03 07:56:06;;;;;;;10.70;4.63;;;2.60;99.90;;;;;;4945533;28;20337;-80
2023/01/03 07:58:33;;;;;;;9.67;4.83;;;2.60;99.90;;;;;;4942954;28;20670;-80
2023/01/03 08:01:05;;;;;;;9.20;4.50;;;2.60;99.90;;;;;;4936800;28;20246;-80
2023/01/03 08:03:32;;;;;;;11.87;3.80;;;2.70;99.90;;;;;;4926934;29;20239;-80
2023/01/03 08:06:03;;;;;;;7.03;3.87;;;2.70;99.90;;;;;;4946133;28;20230;-80
2023/01/03 08:08:29;;;;;;;11.33;4.20;;;2.80;99.90;;;;;;4939134;28;20246;-80
2023/01/03 08:13:42;;;;;;;8.70;4.17;;;2.90;99.90;;;;;;4927706;29;20222;-80
2023/01/03 08:16:10;;;;;;;8.90;4.10;;;2.90;99.90;;;;;;4933991;28;20358;-80
2023/01/03 08:18:38;;;;;;;7.60;4.30;;;3.00;99.90;;;;;;4926478;29;20224;-80
2023/01/03 08:21:06;;;;;;;9.70;4.43;;;3.00;99.90;;;;;;4931041;29;20784;-80
2023/01/03 08:23:37;;;;;;;15.40;5.47;;;3.10;99.90;;;;;;4947670;29;20749;-80
2023/01/03 08:26:09;;;;;;;9.80;4.70;;;3.10;99.90;;;;;;4920438;29;20230;-80
2023/01/03 08:28:37;;;;;;;7.33;4.73;;;3.10;99.90;;;;;;4943249;28;20225;-79
2023/01/03 08:31:10;;;;;;;7.53;4.20;;;3.10;99.90;;;;;;4935041;28;20310;-80
2023/01/03 08:33:42;;;;;;;9.23;4.90;;;3.20;99.90;;;;;;4931705;28;20331;-80
2023/01/03 08:36:10;;;;;;;12.10;5.27;;;3.20;99.90;;;;;;4939516;28;20226;-80
2023/01/03 08:38:42;;;;;;;7.77;4.57;;;3.20;99.90;;;;;;4929552;29;20252;-80
2023/01/03 08:41:11;;;;;;;10.17;5.20;;;3.20;99.90;;;;;;4929289;28;20251;-81
2023/01/03 08:43:40;;;;;;;8.37;4.63;;;3.10;99.90;;;;;;4929528;29;20238;-80
2023/01/03 08:46:11;;;;;;;10.17;5.27;;;3.10;99.90;;;;;;4927592;29;20278;-82
2023/01/03 08:48:41;;;;;;;11.20;5.40;;;3.10;99.90;;;;;;4926535;29;20258;-80
2023/01/03 08:51:08;;;;;;;15.37;6.10;;;3.10;99.90;;;;;;4924999;28;20361;-80
2023/01/03 08:53:34;;;;;;;14.20;6.40;;;3.10;99.90;;;;;;4931988;28;20230;-80
2023/01/03 08:56:01;;;;;;;10.53;5.47;;;3.00;99.90;;;;;;4936925;28;20315;-80
2023/01/03 08:58:28;;;;;;;17.00;6.33;;;3.10;99.90;;;;;;4946131;28;20227;-80
2023/01/03 09:00:54;;;;;;;9.37;5.90;;;3.10;99.90;;;;;;4945747;29;20226;-80
2023/01/03 09:03:22;;;;;;;12.77;6.77;;;3.10;99.90;;;;;;4940191;28;20235;-80
2023/01/03 09:05:49;;;;;;;14.37;7.43;;;3.20;99.90;;;;;;4936025;28;20232;-80
2023/01/03 09:08:17;;;;;;;13.13;6.87;;;3.30;99.90;;;;;;4924513;28;20220;-80
2023/01/03 09:10:47;;;;;;;12.37;6.67;;;3.40;99.90;;;;;;4939522;29;20257;-80
2023/01/03 09:13:13;;;;;;;11.33;6.30;;;3.50;99.90;;;;;;4938986;28;20220;-80
2023/01/03 09:15:40;;;;;;;10.97;6.10;;;3.60;99.90;;;;;;4929991;29;20234;-80
2023/01/03 09:18:07;;;;;;;11.83;6.10;;;3.90;99.90;;;;;;4934741;28;20289;-80
2023/01/03 09:20:35;;;;;;;10.50;6.10;;;4.00;99.90;;;;;;4944090;28;20224;-80
2023/01/03 09:23:02;;;;;;;11.83;5.83;;;4.20;99.90;;;;;;4927324;29;20235;-81
2023/01/03 09:25:29;;;;;;;12.20;6.90;;;4.50;99.90;;;;;;4930945;29;20325;-81
2023/01/03 09:27:55;;;;;;;11.73;5.70;;;4.90;99.90;;;;;;4927735;29;20769;-79
2023/01/03 09:30:22;;;;;;;9.90;5.87;;;5.30;99.90;;;;;;4944648;29;20271;-80
2023/01/03 09:32:50;;;;;;;12.27;5.33;;;5.70;99.90;;;;;;4946613;28;20581;-80
2023/01/03 09:35:22;;;;;;;7.40;4.87;;;6.20;99.90;;;;;;4927221;28;20234;-81
2023/01/03 09:37:50;;;;;;;11.40;4.80;;;6.60;99.90;;;;;;4937099;28;20264;-81
2023/01/03 09:40:17;;;;;;;6.47;4.40;;;7.00;99.90;;;;;;4931873;29;20256;-81
2023/01/03 09:45:33;;;;;;;9.20;5.00;;;7.60;99.90;;;;;;4927090;29;20670;-80
2023/01/03 09:48:04;;;;;;;11.33;5.47;;;8.00;99.90;;;;;;4943043;29;20248;-81
2023/01/03 09:50:36;;;;;;;8.03;4.87;;;8.20;99.90;;;;;;4935645;29;20817;-80
2023/01/03 10:05:03;;;;;;;7.00;4.23;;;9.20;99.90;;;;;;4919135;29;20240;-80
2023/01/03 10:07:43;;;;;;;10.00;4.50;;;9.30;99.90;;;;;;4934941;28;20227;-80
2023/01/03 10:10:17;;;;;;;8.37;4.63;;;9.30;99.90;;;;;;4943651;28;20743;-80
2023/01/03 10:12:58;;;;;;;10.87;4.50;;;9.40;99.90;;;;;;4944761;28;20245;-80
2023/01/03 10:15:36;;;;;;;10.40;4.50;;;9.50;99.90;;;;;;4946429;28;20240;-80
2023/01/03 10:18:15;;;;;;;8.70;4.70;;;9.40;99.90;;;;;;4934213;28;20279;-80
2023/01/03 10:20:48;;;;;;;6.77;3.93;;;9.30;99.90;;;;;;4925622;29;20231;-80
2023/01/03 10:23:15;;;;;;;7.17;3.97;;;9.00;99.90;;;;;;4943620;28;20364;-81
2023/01/03 10:25:45;;;;;;;6.47;4.13;;;8.70;99.90;;;;;;4927947;29;20232;-80
2023/01/03 10:28:18;;;;;;;8.67;4.47;;;8.40;99.90;;;;;;4930440;28;20332;-80
2023/01/03 10:31:00;;;;;;;7.90;4.57;;;8.00;99.90;;;;;;4948077;28;20241;-81
2023/01/03 10:33:34;;;;;;;9.83;4.60;;;7.80;99.90;;;;;;4938132;28;20288;-80
2023/01/03 10:36:01;;;;;;;9.93;4.53;;;7.50;99.90;;;;;;4933627;28;20604;-81
2023/01/03 10:38:28;;;;;;;8.70;4.70;;;7.40;99.90;;;;;;4946293;28;20233;-80
2023/01/03 10:40:58;;;;;;;8.27;4.20;;;7.30;99.90;;;;;;4948516;29;20221;-80
2023/01/03 10:43:33;;;;;;;6.53;4.33;;;7.10;99.90;;;;;;4944495;28;20259;-80
2023/01/03 10:46:01;;;;;;;8.13;4.10;;;7.00;99.90;;;;;;4933647;29;20235;-80
2023/01/03 10:48:36;;;;;;;10.70;4.60;;;6.80;99.90;;;;;;4930544;29;20712;-80
2023/01/03 10:51:21;;;;;;;9.03;4.70;;;6.70;99.90;;;;;;4931373;29;20235;-80
2023/01/03 10:53:51;;;;;;;7.73;4.33;;;6.70;99.90;;;;;;4916256;29;20705;-81
2023/01/03 10:56:21;;;;;;;8.97;4.63;;;6.80;99.90;;;;;;4938322;28;20244;-80
2023/01/03 10:58:48;;;;;;;9.80;4.60;;;6.80;99.90;;;;;;4928658;29;20234;-80
2023/01/03 11:01:21;;;;;;;7.70;4.60;;;6.90;99.90;;;;;;4946181;28;20912;-80
2023/01/03 11:04:14;;;;;;;9.90;5.23;;;7.00;99.90;;;;;;4930245;29;20280;-80
2023/01/03 11:06:55;;;;;;;8.87;4.57;;;7.10;99.90;;;;;;4926672;28;20314;-81
2023/01/03 11:09:22;;;;;;;7.00;4.50;;;7.20;99.90;;;;;;4942179;28;20224;-80
2023/01/03 11:11:59;;;;;;;9.50;5.30;;;7.20;99.90;;;;;;4930554;29;20248;-80
2023/01/03 11:14:27;;;;;;;7.97;4.37;;;7.20;99.90;;;;;;4929854;28;20236;-80
2023/01/03 11:16:57;;;;;;;9.40;5.00;;;7.30;99.90;;;;;;4944168;28;20654;-80
2023/01/03 11:19:28;;;;;;;6.20;4.20;;;7.40;99.90;;;;;;4942140;28;20245;-80
2023/01/03 11:22:03;;;;;;;6.87;4.03;;;7.40;99.90;;;;;;4950573;28;20225;-80
2023/01/03 11:24:58;;;;;;;9.37;4.23;;;7.40;99.90;;;;;;4934448;29;20222;-81
2023/01/03 11:27:53;;;;;;;9.83;4.37;;;7.30;99.90;;;;;;4927932;28;20230;-80
2023/01/03 11:30:28;;;;;;;7.00;4.10;;;7.20;99.90;;;;;;4927071;29;20259;-80
2023/01/03 11:33:17;;;;;;;7.10;4.00;;;7.10;99.90;;;;;;4928410;28;20440;-80
2023/01/03 11:35:59;;;;;;;7.27;4.17;;;6.90;99.90;;;;;;4941209;28;20240;-80
2023/01/03 11:38:44;;;;;;;7.73;4.03;;;6.90;99.90;;;;;;4932321;28;20315;-81
2023/01/03 11:41:26;;;;;;;7.07;4.40;;;6.80;99.90;;;;;;4928177;29;20232;-80
2023/01/03 11:44:10;;;;;;;10.80;4.57;;;6.80;99.90;;;;;;4950872;28;20236;-81
2023/01/03 11:46:55;;;;;;;6.77;4.37;;;6.80;99.90;;;;;;4931551;29;20236;-80
2023/01/03 11:49:32;;;;;;;7.37;4.87;;;6.70;99.90;;;;;;4925846;28;20606;-80
2023/01/03 11:52:15;;;;;;;6.97;5.00;;;6.70;99.90;;;;;;4943129;29;20413;-80
2023/01/03 11:55:12;;;;;;;6.67;3.83;;;6.70;99.90;;;;;;4946145;28;20232;-80
2023/01/03 11:57:47;;;;;;;5.00;3.47;;;6.70;99.90;;;;;;4927991;29;20233;-81
2023/01/03 12:00:26;;;;;;;7.10;4.07;;;6.70;99.90;;;;;;4950622;28;20225;-80
2023/01/03 12:03:02;;;;;;;5.30;3.10;;;6.70;99.90;;;;;;4953283;28;20703;-80
2023/01/03 12:05:45;;;;;;;6.23;2.70;;;6.70;99.90;;;;;;4937090;29;20901;-81
2023/01/03 12:08:40;;;;;;;4.90;3.00;;;6.70;99.90;;;;;;4938114;28;20251;-81
2023/01/03 12:11:21;;;;;;;5.80;3.00;;;6.70;99.90;;;;;;4950331;28;20232;-81
2023/01/03 12:13:55;;;;;;;8.50;2.70;;;6.70;99.90;;;;;;4945170;28;20245;-81
2023/01/03 12:16:29;;;;;;;4.30;2.93;;;6.70;99.90;;;;;;4932573;29;20833;-81
2023/01/03 12:19:01;;;;;;;5.50;2.77;;;6.70;99.90;;;;;;4947830;28;20254;-81
2023/01/03 12:21:38;;;;;;;5.57;2.30;;;6.70;99.90;;;;;;4929720;29;22180;-81
2023/01/03 12:24:12;;;;;;;5.53;2.63;;;6.70;99.90;;;;;;4944267;28;20351;-82
2023/01/03 12:26:42;;;;;;;4.97;2.77;;;6.60;99.90;;;;;;4930989;29;20607;-81
2023/01/03 12:29:15;;;;;;;4.33;2.30;;;6.60;99.90;;;;;;4942084;28;20232;-81
2023/01/03 12:31:48;;;;;;;5.10;2.10;;;6.60;99.90;;;;;;4943175;28;20789;-81
2023/01/03 12:34:24;;;;;;;4.53;2.30;;;6.60;99.90;;;;;;4929133;28;20228;-81
2023/01/03 12:36:59;;;;;;;4.23;2.70;;;6.60;99.90;;;;;;4936591;28;20254;-81
2023/01/03 12:39:43;;;;;;;4.60;2.53;;;6.60;99.90;;;;;;4947119;28;20764;-81
2023/01/03 12:42:21;;;;;;;3.10;2.43;;;6.60;99.90;;;;;;4928105;29;20235;-81
2023/01/03 12:44:53;;;;;;;4.77;2.93;;;6.60;99.90;;;;;;4948374;28;20232;-81
2023/01/03 12:47:28;;;;;;;5.07;3.00;;;6.60;99.90;;;;;;4946153;28;20232;-81
2023/01/03 12:50:01;;;;;;;6.20;3.13;;;6.50;99.90;;;;;;4947705;28;20905;-81
2023/01/03 12:52:30;;;;;;;6.13;3.30;;;6.50;99.90;;;;;;4926070;29;20225;-81
2023/01/03 12:55:03;;;;;;;5.87;3.10;;;6.40;99.90;;;;;;4928748;29;20224;-81
2023/01/03 12:57:58;;;;;;;5.30;3.63;;;6.40;99.90;;;;;;4943971;29;20236;-81
2023/01/03 13:00:46;;;;;;;7.33;3.33;;;6.40;99.90;;;;;;4943407;28;20252;-81
2023/01/03 13:03:21;;;;;;;6.83;3.10;;;6.40;99.90;;;;;;4944034;28;20227;-81
2023/01/03 13:05:51;;;;;;;4.00;2.70;;;6.30;99.90;;;;;;4933722;29;20235;-81
2023/01/03 13:08:29;;;;;;;5.60;2.90;;;6.30;99.90;;;;;;4948691;28;20371;-81
2023/01/03 13:10:59;;;;;;;3.23;2.23;;;6.20;99.90;;;;;;4927735;29;20250;-81
2023/01/03 13:13:27;;;;;;;3.50;2.60;;;6.20;99.90;;;;;;4937763;28;20717;-81
2023/01/03 13:15:54;;;;;;;5.13;2.43;;;6.20;99.90;;;;;;4931669;29;20250;-81
2023/01/03 13:18:37;;;;;;;4.03;2.87;;;6.10;99.90;;;;;;4948026;28;20224;-81
2023/01/03 13:21:40;;;;;;;7.27;2.90;;;6.10;99.90;;;;;;4927466;29;20226;-81
2023/01/03 13:24:07;;;;;;;8.63;2.70;;;6.00;99.90;;;;;;4944154;28;20234;-81
2023/01/03 13:26:34;;;;;;;5.00;2.90;;;6.10;99.90;;;;;;4948459;28;20907;-81
2023/01/03 13:29:38;;;;;;;3.37;2.50;;;6.00;99.90;;;;;;4932890;29;20226;-81
2023/01/03 13:32:15;;;;;;;5.13;2.83;;;5.90;99.90;;;;;;4940033;28;20218;-81
2023/01/03 13:34:43;;;;;;;6.70;2.73;;;5.90;99.90;;;;;;4946931;28;20226;-81
2023/01/03 13:37:17;;;;;;;5.13;3.13;;;5.80;99.90;;;;;;4949485;28;20226;-81
2023/01/03 13:40:01;;;;;;;4.87;2.70;;;5.80;99.90;;;;;;4935842;28;20953;-81
2023/01/03 13:42:30;;;;;;;4.83;2.70;;;5.70;99.90;;;;;;4922401;28;20225;-81
2023/01/03 13:45:26;;;;;;;6.37;2.63;;;5.70;99.90;;;;;;4955724;28;20261;-81
2023/01/03 13:47:54;;;;;;;6.10;3.10;;;5.60;99.90;;;;;;4937035;28;20880;-81
2023/01/03 13:50:26;;;;;;;5.00;2.73;;;5.60;99.90;;;;;;4939554;29;20226;-81
2023/01/03 13:52:58;;;;;;;9.33;3.40;;;5.60;99.90;;;;;;4953456;28;20246;-81
2023/01/03 13:55:35;;;;;;;4.73;2.87;;;5.50;99.90;;;;;;4938995;28;20242;-81
2023/01/03 13:58:04;;;;;;;7.27;3.07;;;5.50;99.90;;;;;;4946226;28;20221;-81
2023/01/03 14:00:34;;;;;;;6.67;3.33;;;5.50;99.90;;;;;;4950507;28;20234;-81
2023/01/03 14:03:33;;;;;;;6.87;3.83;;;5.40;99.90;;;;;;4932480;29;20234;-82
2023/01/03 14:06:29;;;;;;;5.50;3.50;;;5.40;99.90;;;;;;4951870;28;20244;-81
2023/01/03 14:09:24;;;;;;;7.40;3.50;;;5.40;99.90;;;;;;4937871;29;20325;-82
2023/01/03 14:12:26;;;;;;;6.07;3.40;;;5.30;99.90;;;;;;4934461;28;20240;-81
2023/01/03 14:14:55;;;;;;;6.77;3.67;;;5.20;99.90;;;;;;4888201;29;20288;-81
2023/01/03 14:17:27;;;;;;;9.33;3.97;;;5.20;99.90;;;;;;4934481;29;20214;-81
2023/01/03 14:19:57;;;;;;;5.17;3.20;;;5.20;99.90;;;;;;4950348;28;20250;-81
2023/01/03 14:22:33;;;;;;;5.50;3.30;;;5.10;99.90;;;;;;4941547;28;20241;-81
2023/01/03 14:24:59;;;;;;;8.53;3.40;;;5.10;99.90;;;;;;4937741;29;20228;-81
2023/01/03 14:27:31;;;;;;;5.17;3.40;;;5.10;99.90;;;;;;4954683;28;20233;-82